Time;durP1;ratioP1;P1;durP2;ratioP2;P2;SDS_P1;SDS_P2;PMS_P1;PMS_P2;Temp;Humidity;BMP_temperature;BMP_pressure;BME280_temperature;BME280_humidity;BME280_pressure;Samples;Min_cycle;Max_cycle;Signal;HPM_P1;HPM_P2
2022/03/20 00:00:22;;;;;;;46.70;22.60;;;;;;;-3.38;61.56;102621.71;214248;1274;140649;-66
2022/03/20 00:05:46;;;;;;;41.90;22.60;;;;;;;-3.45;61.62;102617.33;214235;1274;140777;-66
2022/03/20 00:10:54;;;;;;;46.00;23.60;;;;;;;-3.56;61.63;102618.23;213818;1274;142052;-65
2022/03/20 00:15:59;;;;;;;46.60;22.30;;;;;;;-3.68;61.80;102616.19;213486;1274;141366;-66
2022/03/20 00:21:04;;;;;;;50.10;24.40;;;;;;;-3.73;62.15;102610.52;213883;1274;140771;-66
2022/03/20 00:26:08;;;;;;;53.40;25.70;;;;;;;-3.72;62.21;102607.02;214724;1273;140965;-67
2022/03/20 00:31:13;;;;;;;51.70;23.90;;;;;;;-3.72;62.21;102606.31;214831;1273;141372;-67
2022/03/20 00:36:18;;;;;;;46.50;26.10;;;;;;;-3.78;62.06;102603.64;214803;1273;143360;-71
2022/03/20 00:41:21;;;;;;;41.50;22.70;;;;;;;-3.82;62.26;102602.61;214226;1274;140874;-72
2022/03/20 00:46:27;;;;;;;46.00;23.10;;;;;;;-3.87;62.29;102599.35;213942;1274;141007;-69
2022/03/20 00:51:32;;;;;;;56.40;28.10;;;;;;;-3.93;62.41;102599.09;216064;1274;141171;-69
2022/03/20 00:56:36;;;;;;;46.90;25.80;;;;;;;-3.95;62.46;102603.38;215875;1274;140409;-65
2022/03/20 01:01:42;;;;;;;45.10;21.70;;;;;;;-3.91;62.65;102601.98;215607;1274;140839;-74
2022/03/20 01:06:47;;;;;;;41.40;23.60;;;;;;;-3.88;62.67;102604.25;214718;1274;141789;-77
2022/03/20 01:11:52;;;;;;;39.80;20.40;;;;;;;-3.88;63.01;102603.03;214136;1274;140247;-76
2022/03/20 01:16:57;;;;;;;47.70;23.20;;;;;;;-3.93;63.06;102602.05;214140;1274;140126;-71
2022/03/20 01:22:02;;;;;;;40.20;21.70;;;;;;;-3.98;63.03;102598.65;215735;1274;142307;-71
2022/03/20 01:27:07;;;;;;;46.50;22.90;;;;;;;-4.00;63.42;102593.52;214458;1274;140032;-71
2022/03/20 01:32:12;;;;;;;38.50;21.80;;;;;;;-4.04;63.37;102589.77;214163;1274;139901;-71
2022/03/20 01:37:15;;;;;;;41.10;22.70;;;;;;;-4.08;63.56;102588.02;214629;1274;140632;-72
2022/03/20 01:42:21;;;;;;;38.10;22.10;;;;;;;-4.11;63.64;102593.02;214433;1274;140940;-68
2022/03/20 01:47:25;;;;;;;39.00;21.60;;;;;;;-4.15;63.85;102593.55;214535;1274;141257;-63
2022/03/20 01:52:29;;;;;;;36.60;21.50;;;;;;;-4.21;63.80;102592.77;214662;1274;141837;-64
2022/03/20 01:57:37;;;;;;;37.90;22.90;;;;;;;-4.28;63.73;102594.31;213406;1274;140479;-66
2022/03/20 02:02:42;;;;;;;42.70;22.30;;;;;;;-4.32;63.76;102586.70;213311;1274;140580;-67
2022/03/20 02:07:47;;;;;;;39.30;20.60;;;;;;;-4.36;63.73;102584.11;214286;1274;142155;-68
2022/03/20 02:12:51;;;;;;;38.80;22.30;;;;;;;-4.39;63.93;102585.44;214362;1273;140350;-63
2022/03/20 02:17:57;;;;;;;41.70;20.10;;;;;;;-4.37;64.03;102583.61;213554;1273;140941;-65
2022/03/20 02:23:01;;;;;;;38.50;23.00;;;;;;;-4.39;64.40;102579.89;214311;1274;140489;-62
2022/03/20 02:28:06;;;;;;;35.60;20.00;;;;;;;-4.46;64.33;102579.81;213251;1274;140737;-64
2022/03/20 02:33:10;;;;;;;41.90;20.20;;;;;;;-4.53;64.23;102577.74;215378;1274;141312;-65
2022/03/20 02:38:15;;;;;;;41.20;22.30;;;;;;;-4.58;64.07;102578.27;214805;1273;140341;-65
2022/03/20 02:43:19;;;;;;;32.00;20.20;;;;;;;-4.62;64.27;102578.14;215410;1274;141334;-66
2022/03/20 02:48:23;;;;;;;34.20;19.00;;;;;;;-4.61;64.40;102576.91;214892;1274;141002;-69
2022/03/20 02:53:26;;;;;;;37.20;18.90;;;;;;;-4.60;64.81;102578.73;215902;1273;140463;-69
2022/03/20 02:58:30;;;;;;;37.20;19.50;;;;;;;-4.59;65.13;102581.30;215491;1274;141535;-69
2022/03/20 03:03:34;;;;;;;29.40;18.60;;;;;;;-4.57;65.62;102585.35;215780;1274;141669;-67
2022/03/20 03:15:18;;;;;;;33.00;16.20;;;;;;;-4.60;65.28;102578.05;216253;1274;140580;-71
2022/03/20 03:19:25;;;;;;;33.20;16.00;;;;;;;-4.67;65.45;102579.08;214210;1274;140081;-65
2022/03/20 03:24:30;;;;;;;39.60;19.20;;;;;;;-4.77;65.42;102577.05;215119;1274;222304;-66
2022/03/20 03:29:33;;;;;;;45.10;21.90;;;;;;;-4.83;65.90;102575.05;215809;1272;140281;-68
2022/03/20 03:40:04;;;;;;;42.80;19.20;;;;;;;-4.83;66.19;102576.77;214558;1274;140694;-67
2022/03/20 03:45:09;;;;;;;52.70;23.30;;;;;;;-4.81;66.00;102577.06;214778;1274;140739;-70
2022/03/20 03:50:13;;;;;;;41.00;20.70;;;;;;;-4.82;65.89;102576.42;213713;1274;142374;-68
2022/03/20 03:55:18;;;;;;;43.50;20.90;;;;;;;-4.90;65.71;102575.53;214115;1274;141108;-65
2022/03/20 04:00:24;;;;;;;43.20;21.50;;;;;;;-4.95;65.73;102577.68;214575;1274;140089;-68
2022/03/20 04:05:29;;;;;;;42.30;20.90;;;;;;;-4.96;66.05;102581.18;214267;1272;140291;-67
2022/03/20 04:10:33;;;;;;;45.00;20.70;;;;;;;-5.01;65.93;102575.70;213974;1274;140538;-70
2022/03/20 04:15:38;;;;;;;42.40;19.50;;;;;;;-5.06;66.07;102575.54;213993;1274;140765;-65
2022/03/20 04:20:44;;;;;;;43.70;24.10;;;;;;;-5.11;66.04;102574.71;214455;1274;139740;-65
2022/03/20 04:25:49;;;;;;;43.50;18.70;;;;;;;-5.17;66.02;102570.61;214429;1273;140040;-66
2022/03/20 04:30:53;;;;;;;32.60;16.90;;;;;;;-5.22;66.45;102581.06;214549;1274;140771;-66
2022/03/20 04:35:58;;;;;;;34.00;19.90;;;;;;;-5.23;66.57;102582.87;214135;1274;139889;-65
2022/03/20 04:41:03;;;;;;;35.00;18.20;;;;;;;-5.27;66.62;102585.45;214672;1274;140072;-66
2022/03/20 04:46:08;;;;;;;37.90;17.90;;;;;;;-5.32;66.83;102590.32;215030;1274;141518;-65
2022/03/20 05:01:59;;;;;;;48.10;27.00;;;;;;;-5.17;66.86;102602.86;216124;1274;142568;-68
2022/03/20 05:07:05;;;;;;;46.30;24.10;;;;;;;-5.07;66.87;102608.53;215333;1273;140205;-66
2022/03/20 05:17:33;;;;;;;53.50;27.20;;;;;;;-4.81;67.01;102607.92;216244;1274;141310;-67
2022/03/20 05:22:40;;;;;;;54.50;26.50;;;;;;;-4.65;67.16;102604.16;216377;1273;140622;-67
2022/03/20 05:27:44;;;;;;;60.20;31.70;;;;;;;-4.51;67.11;102609.23;216208;1274;140494;-68
2022/03/20 05:32:50;;;;;;;45.80;21.80;;;;;;;-4.35;67.03;102615.30;214507;1274;140836;-67
2022/03/20 05:37:55;;;;;;;42.80;23.10;;;;;;;-4.23;67.39;102619.44;215231;1274;141608;-67
2022/03/20 05:43:00;;;;;;;39.10;21.30;;;;;;;-4.12;67.40;102619.80;214892;1273;140063;-68
2022/03/20 05:48:05;;;;;;;38.10;20.90;;;;;;;-3.98;67.48;102629.39;214335;1274;141422;-64
2022/03/20 05:53:09;;;;;;;38.70;20.10;;;;;;;-3.82;67.66;102638.20;214749;1274;142042;-67
2022/03/20 05:58:15;;;;;;;35.20;19.70;;;;;;;-3.60;67.60;102640.33;214128;1274;140463;-67
2022/03/20 06:03:20;;;;;;;33.70;15.50;;;;;;;-3.40;67.66;102643.15;213808;1273;141551;-65
2022/03/20 06:08:28;;;;;;;29.90;15.10;;;;;;;-3.16;67.32;102637.67;214241;1274;141074;-65
2022/03/20 06:13:38;;;;;;;29.50;15.50;;;;;;;-2.90;66.32;102638.45;213867;1273;141241;-66
2022/03/20 06:18:42;;;;;;;27.50;16.00;;;;;;;-2.61;65.87;102640.23;213859;1274;141668;-63
2022/03/20 06:23:47;;;;;;;30.90;16.20;;;;;;;-2.32;65.13;102640.98;213863;1274;143158;-66
2022/03/20 06:28:52;;;;;;;34.40;17.60;;;;;;;-1.98;64.49;102640.61;214762;1273;142227;-67
2022/03/20 06:33:57;;;;;;;31.70;16.70;;;;;;;-1.58;64.09;102632.28;213574;1274;141513;-65
2022/03/20 06:39:01;;;;;;;31.60;19.70;;;;;;;-1.16;63.86;102637.54;214646;1274;140810;-66
2022/03/20 06:44:06;;;;;;;43.70;21.30;;;;;;;-0.76;62.88;102643.10;214705;1274;141047;-65
2022/03/20 06:49:10;;;;;;;23.70;16.10;;;;;;;-0.39;62.49;102648.71;214582;1274;142623;-67
2022/03/20 06:54:14;;;;;;;27.70;18.10;;;;;;;-0.09;62.00;102652.45;215990;1274;140164;-67
2022/03/20 06:59:18;;;;;;;29.50;16.90;;;;;;;0.24;61.24;102651.77;214992;1274;140092;-66
2022/03/20 07:04:23;;;;;;;32.70;19.80;;;;;;;0.75;60.28;102650.06;215436;1274;140159;-67
2022/03/20 07:09:27;;;;;;;30.40;17.40;;;;;;;1.57;59.67;102651.19;216067;1273;141473;-67
2022/03/20 07:14:32;;;;;;;18.40;12.60;;;;;;;2.37;58.95;102650.14;216249;1274;140562;-69
2022/03/20 07:19:37;;;;;;;19.90;11.40;;;;;;;3.73;57.53;102641.59;215985;1273;140220;-71
2022/03/20 07:24:42;;;;;;;22.60;13.60;;;;;;;5.70;55.71;102638.60;215953;1275;140570;-70
2022/03/20 07:29:45;;;;;;;21.60;13.80;;;;;;;7.49;53.53;102630.66;215464;1273;140625;-68
2022/03/20 07:34:49;;;;;;;24.70;13.30;;;;;;;9.07;50.50;102626.73;216064;1275;141320;-67
2022/03/20 07:39:52;;;;;;;12.50;9.60;;;;;;;10.28;48.79;102625.91;215548;1274;140473;-67
2022/03/20 07:44:55;;;;;;;24.00;11.40;;;;;;;11.09;46.83;102622.23;215334;1273;162304;-68
2022/03/20 07:50:00;;;;;;;14.90;11.20;;;;;;;11.31;44.56;102625.23;214036;1274;140702;-66
2022/03/20 07:55:05;;;;;;;14.90;11.00;;;;;;;11.52;43.52;102625.02;214009;1274;140408;-67
2022/03/20 08:00:09;;;;;;;18.70;11.60;;;;;;;11.45;41.93;102628.73;214025;1274;140930;-67
2022/03/20 08:05:13;;;;;;;18.50;13.20;;;;;;;11.00;39.26;102630.04;213921;1274;143242;-67
2022/03/20 08:10:18;;;;;;;18.20;11.80;;;;;;;10.72;39.92;102635.77;213704;1274;141502;-66
2022/03/20 08:15:23;;;;;;;14.20;9.90;;;;;;;10.59;39.31;102633.66;214011;1274;140968;-68
2022/03/20 08:20:27;;;;;;;20.40;9.80;;;;;;;10.35;38.24;102637.60;214159;1274;139714;-68
2022/03/20 08:25:31;;;;;;;14.50;8.90;;;;;;;10.14;37.53;102639.14;215195;1274;139979;-69
2022/03/20 08:30:34;;;;;;;12.90;9.60;;;;;;;9.88;36.54;102643.64;213754;1274;141420;-67
2022/03/20 08:35:41;;;;;;;13.50;8.90;;;;;;;9.80;36.56;102639.91;214491;1274;139611;-68
2022/03/20 08:40:45;;;;;;;12.70;8.30;;;;;;;9.81;36.36;102636.08;213488;1274;141358;-64
2022/03/20 08:45:50;;;;;;;17.30;8.70;;;;;;;9.72;34.29;102636.27;213715;1273;152798;-68
2022/03/20 08:50:54;;;;;;;12.80;8.30;;;;;;;9.36;32.95;102637.02;214370;1274;140859;-67
2022/03/20 08:56:04;;;;;;;15.20;8.20;;;;;;;9.28;33.39;102631.17;215020;1273;140612;-65
2022/03/20 09:01:08;;;;;;;12.50;7.50;;;;;;;9.42;34.28;102631.71;215514;1274;139869;-70
2022/03/20 09:06:14;;;;;;;11.60;7.80;;;;;;;9.61;34.41;102626.42;216103;1273;140475;-69
2022/03/20 09:11:18;;;;;;;15.30;8.40;;;;;;;9.85;34.13;102628.85;215414;1274;140860;-68
2022/03/20 09:21:48;;;;;;;11.90;8.80;;;;;;;10.15;34.23;102628.43;216327;1274;142588;-69
2022/03/20 09:26:53;;;;;;;13.50;8.80;;;;;;;10.23;33.38;102622.02;216296;1273;140541;-69
2022/03/20 09:31:58;;;;;;;9.30;7.10;;;;;;;10.34;33.10;102619.48;216405;1273;140763;-69
2022/03/20 09:37:01;;;;;;;10.60;7.20;;;;;;;10.45;32.52;102611.67;215090;1274;140275;-68
2022/03/20 09:42:06;;;;;;;16.30;9.60;;;;;;;10.38;30.98;102611.91;215187;1273;140783;-69
2022/03/20 09:47:17;;;;;;;10.90;8.00;;;;;;;10.32;31.47;102610.45;215273;1273;140015;-68
2022/03/20 09:52:23;;;;;;;31.50;9.40;;;;;;;10.50;31.50;102610.48;213777;1274;140938;-71
2022/03/20 09:57:33;;;;;;;11.60;8.20;;;;;;;10.55;31.55;102604.77;213526;1274;370877;-69
2022/03/20 10:02:39;;;;;;;13.90;8.60;;;;;;;10.63;31.37;102604.85;213836;1274;141608;-69
2022/03/20 10:07:43;;;;;;;12.70;8.40;;;;;;;10.73;31.58;102606.85;214607;1274;141521;-68
2022/03/20 10:12:53;;;;;;;14.30;9.80;;;;;;;10.85;31.25;102600.96;214669;1274;140428;-69
2022/03/20 10:18:17;;;;;;;15.30;9.70;;;;;;;10.91;31.18;102596.15;213998;1274;139823;-66
2022/03/20 10:23:39;;;;;;;11.00;8.30;;;;;;;11.01;30.85;102596.52;214719;1274;141473;-70
2022/03/20 10:28:50;;;;;;;14.70;9.40;;;;;;;11.18;30.57;102591.48;213759;1274;140789;-69
2022/03/20 10:34:04;;;;;;;12.20;8.50;;;;;;;11.22;30.50;102592.66;214000;1274;142265;-71
2022/03/20 10:39:12;;;;;;;9.50;8.50;;;;;;;11.05;30.47;102587.02;213891;1274;140520;-72
2022/03/20 10:44:18;;;;;;;13.10;9.70;;;;;;;11.22;30.42;102578.98;214741;1272;140208;-70
2022/03/20 10:49:23;;;;;;;9.20;7.70;;;;;;;11.41;29.85;102579.49;213046;1274;139874;-67
2022/03/20 10:54:39;;;;;;;11.70;8.10;;;;;;;11.52;29.74;102572.93;213105;1274;139912;-69
2022/03/20 10:59:43;;;;;;;10.70;7.80;;;;;;;11.59;29.90;102575.44;215369;1274;141143;-68
2022/03/20 11:04:48;;;;;;;11.80;7.50;;;;;;;11.78;29.60;102570.69;214788;1274;140988;-70
2022/03/20 11:09:55;;;;;;;15.10;9.20;;;;;;;11.74;28.80;102567.84;213488;1274;140960;-70
2022/03/20 11:15:04;;;;;;;13.00;8.40;;;;;;;11.67;28.76;102558.83;216090;1274;141979;-71
2022/03/20 11:20:10;;;;;;;11.30;7.60;;;;;;;11.64;28.70;102555.47;215775;1274;140688;-70
2022/03/20 11:25:20;;;;;;;13.80;10.50;;;;;;;11.70;28.48;102548.73;215940;1274;140905;-71
2022/03/20 11:30:30;;;;;;;9.40;7.40;;;;;;;11.69;28.33;102535.44;215905;1274;141170;-71
2022/03/20 11:35:36;;;;;;;18.40;9.80;;;;;;;11.74;28.29;102534.56;215996;1274;139707;-65
2022/03/20 11:40:43;;;;;;;12.40;8.50;;;;;;;11.88;28.52;102525.75;216098;1274;140827;-67
2022/03/20 11:46:05;;;;;;;;;;;;;;;11.93;28.25;102520.45;216023;1273;139802;-71
2022/03/20 11:51:11;;;;;;;13.00;7.70;;;;;;;11.96;28.22;102509.58;215596;1274;126676;-71
2022/03/20 11:56:30;;;;;;;12.40;8.20;;;;;;;12.03;27.51;102502.72;215450;1274;139788;-71
2022/03/20 12:02:02;;;;;;;14.20;8.80;;;;;;;12.13;27.95;102499.33;214692;1274;139757;-70
2022/03/20 12:07:20;;;;;;;11.60;6.40;;;;;;;12.12;26.78;102486.39;215316;1274;141095;-71
2022/03/20 12:12:40;;;;;;;11.20;8.40;;;;;;;11.99;26.50;102480.79;213781;1274;141774;-70
2022/03/20 12:18:03;;;;;;;13.40;8.70;;;;;;;11.85;26.16;102477.91;215563;1273;140712;-70
2022/03/20 12:23:37;;;;;;;7.40;6.40;;;;;;;11.74;26.16;102471.96;214324;1274;142793;-70
2022/03/20 12:28:42;;;;;;;11.80;6.00;;;;;;;11.82;26.23;102467.29;214657;1274;140445;-72
2022/03/20 12:34:32;;;;;;;10.30;7.30;;;;;;;11.79;26.27;102471.27;214102;1274;140082;-70
2022/03/20 12:39:52;;;;;;;10.30;8.10;;;;;;;11.75;26.11;102461.04;214225;1274;140386;-69
2022/03/20 12:44:56;;;;;;;10.70;6.60;;;;;;;11.76;25.80;102457.17;214167;1274;140350;-69
2022/03/20 12:50:09;;;;;;;13.40;7.20;;;;;;;11.62;25.68;102458.30;214368;1274;139845;-70
2022/03/20 12:55:14;;;;;;;8.40;6.60;;;;;;;11.74;26.48;102449.09;214276;1274;140772;-72
2022/03/20 13:00:21;;;;;;;12.50;7.50;;;;;;;11.72;25.69;102444.25;214194;1274;139748;-71
2022/03/20 13:05:26;;;;;;;9.80;7.60;;;;;;;11.64;25.41;102436.27;215153;1274;141407;-70
2022/03/20 13:10:39;;;;;;;10.30;8.60;;;;;;;11.53;25.43;102427.84;215090;1274;140254;-72
2022/03/20 13:15:50;;;;;;;10.80;8.00;;;;;;;11.40;25.24;102427.09;214453;1274;140567;-70
2022/03/20 13:20:55;;;;;;;15.20;9.60;;;;;;;11.30;25.34;102426.55;215927;1273;152815;-71
2022/03/20 13:25:59;;;;;;;8.80;6.30;;;;;;;11.31;25.43;102422.64;215522;1274;141219;-71
2022/03/20 13:31:11;;;;;;;11.70;6.70;;;;;;;11.39;25.45;102418.74;213887;1274;140983;-67
2022/03/20 13:36:16;;;;;;;9.90;6.10;;;;;;;11.49;25.52;102411.66;216192;1274;139895;-70
2022/03/20 13:41:22;;;;;;;11.90;8.10;;;;;;;11.59;25.55;102403.83;215123;1274;141706;-69
2022/03/20 13:46:29;;;;;;;10.40;8.20;;;;;;;11.46;25.38;102400.79;214926;1274;141799;-70
2022/03/20 13:51:35;;;;;;;11.20;7.20;;;;;;;11.38;25.10;102396.59;215938;1273;142439;-67
2022/03/20 13:56:41;;;;;;;9.20;7.30;;;;;;;11.28;25.38;102396.15;215379;1273;142368;-68
2022/03/20 14:01:57;;;;;;;8.60;7.20;;;;;;;11.28;25.12;102398.66;214580;1274;142780;-67
2022/03/20 14:07:04;;;;;;;8.40;7.60;;;;;;;11.17;25.57;102387.82;213702;1274;140411;-69
2022/03/20 14:12:29;;;;;;;9.30;6.50;;;;;;;11.11;25.33;102385.60;215144;1273;140904;-67
2022/03/20 14:17:41;;;;;;;8.70;7.10;;;;;;;11.08;25.40;102385.17;215136;1274;139901;-73
2022/03/20 14:22:53;;;;;;;11.00;7.90;;;;;;;10.95;25.13;102383.48;214660;1275;160211;-72
2022/03/20 14:28:07;;;;;;;8.20;6.80;;;;;;;11.01;25.95;102378.66;214921;1274;140298;-70
2022/03/20 14:44:14;;;;;;;8.20;7.20;;;;;;;10.94;26.35;102364.07;214622;1274;140302;-70
2022/03/20 14:49:24;;;;;;;13.60;8.40;;;;;;;10.96;26.51;102361.70;213971;1274;140220;-69
2022/03/20 14:54:32;;;;;;;7.70;6.30;;;;;;;10.94;26.60;102356.97;213948;1273;140130;-69
2022/03/20 14:59:37;;;;;;;14.80;9.50;;;;;;;10.84;27.05;102349.70;214919;1273;140633;-70
2022/03/20 15:04:41;;;;;;;10.50;8.00;;;;;;;10.77;27.12;102347.64;213909;1274;141577;-68
2022/03/20 15:15:09;;;;;;;9.30;7.80;;;;;;;10.62;27.08;102350.28;215781;1274;140478;-71
2022/03/20 15:20:17;;;;;;;10.20;7.10;;;;;;;10.39;27.11;102348.48;214368;1274;140226;-73
2022/03/20 15:25:23;;;;;;;9.90;6.90;;;;;;;10.21;27.31;102343.64;214321;1274;140139;-71
2022/03/20 15:30:27;;;;;;;11.90;7.20;;;;;;;10.04;27.76;102338.85;215496;1274;141127;-71
2022/03/20 15:35:32;;;;;;;9.50;6.70;;;;;;;9.92;27.77;102335.12;214301;1274;140320;-69
2022/03/20 15:40:37;;;;;;;11.10;7.00;;;;;;;9.82;28.01;102335.91;215339;1273;140304;-73
2022/03/20 15:45:43;;;;;;;11.50;8.20;;;;;;;9.69;27.96;102340.39;215662;1274;139744;-72
2022/03/20 15:50:48;;;;;;;8.50;6.20;;;;;;;9.52;27.96;102329.30;216057;1274;140350;-72
2022/03/20 15:55:56;;;;;;;7.70;6.20;;;;;;;9.39;28.65;102328.96;215620;1275;139879;-72
2022/03/20 16:01:00;;;;;;;8.60;6.50;;;;;;;9.25;28.50;102326.72;215921;1274;139438;-74
2022/03/20 16:06:05;;;;;;;11.10;8.20;;;;;;;9.11;28.72;102331.79;215833;1275;139955;-72
2022/03/20 16:11:12;;;;;;;9.00;6.70;;;;;;;8.95;28.67;102327.43;215562;1274;139400;-71
2022/03/20 16:16:16;;;;;;;9.90;7.50;;;;;;;8.78;29.21;102329.14;214587;1274;140797;-70
2022/03/20 16:21:26;;;;;;;8.30;7.30;;;;;;;8.61;29.17;102328.79;214948;1274;140081;-69
2022/03/20 16:32:04;;;;;;;7.20;5.60;;;;;;;8.26;29.50;102344.64;214653;1274;139879;-73
2022/03/20 16:37:17;;;;;;;13.50;8.40;;;;;;;8.07;29.91;102346.42;215331;1274;139680;-76
2022/03/20 16:42:30;;;;;;;24.50;8.40;;;;;;;7.86;30.06;102347.86;213895;1274;140438;-68
2022/03/20 16:47:36;;;;;;;18.60;8.80;;;;;;;7.68;30.20;102345.67;214389;1274;141160;-70
2022/03/20 16:52:41;;;;;;;14.40;8.10;;;;;;;7.52;30.20;102340.27;213910;1274;141078;-70
2022/03/20 16:57:46;;;;;;;19.50;7.70;;;;;;;7.33;30.64;102342.50;213780;1274;140873;-69
2022/03/20 17:02:53;;;;;;;14.10;8.20;;;;;;;7.13;31.10;102336.61;215051;1274;140962;-71
2022/03/20 17:07:59;;;;;;;14.80;8.00;;;;;;;6.95;31.41;102337.29;214321;1273;140441;-67
2022/03/20 17:13:05;;;;;;;12.60;9.20;;;;;;;6.77;31.49;102334.46;213939;1274;139688;-70
2022/03/20 17:18:10;;;;;;;18.90;10.20;;;;;;;6.58;32.11;102333.15;214654;1274;139915;-70
2022/03/20 17:23:14;;;;;;;10.10;8.10;;;;;;;6.39;31.99;102339.54;215045;1273;139464;-68
2022/03/20 17:28:23;;;;;;;18.10;11.20;;;;;;;6.13;32.81;102338.77;214521;1274;139817;-70
2022/03/20 17:33:30;;;;;;;24.90;11.60;;;;;;;5.89;33.36;102333.71;215200;1274;141331;-72
2022/03/20 17:38:35;;;;;;;19.60;10.20;;;;;;;5.68;33.74;102334.10;214690;1274;140124;-70
2022/03/20 17:43:40;;;;;;;14.10;11.50;;;;;;;5.51;34.06;102337.57;214299;1274;139988;-71
2022/03/20 17:48:52;;;;;;;17.90;11.00;;;;;;;5.33;34.48;102338.16;214173;1273;140762;-69
2022/03/20 17:53:56;;;;;;;19.00;11.40;;;;;;;5.11;34.77;102340.25;213583;1272;141848;-71
2022/03/20 17:59:23;;;;;;;19.90;11.90;;;;;;;4.91;35.25;102338.53;215726;1274;151306;-75
2022/03/20 18:09:49;;;;;;;20.90;14.30;;;;;;;4.47;36.31;102342.58;215933;1273;139877;-71
2022/03/20 18:14:54;;;;;;;28.50;16.00;;;;;;;4.32;36.88;102350.29;215447;1274;141086;-68
2022/03/20 18:19:59;;;;;;;27.00;15.70;;;;;;;4.21;37.56;102346.33;215051;1272;141148;-72
2022/03/20 18:25:07;;;;;;;32.70;16.90;;;;;;;4.09;37.70;102345.20;215491;1273;140608;-67
2022/03/20 18:30:12;;;;;;;;;;;;;;;3.96;38.09;102346.02;214064;1276;249876;-68
2022/03/20 18:35:16;;;;;;;38.70;18.70;;;;;;;3.77;38.39;102351.64;215063;1272;125632;-70
2022/03/20 18:40:21;;;;;;;66.40;26.50;;;;;;;3.61;38.89;102353.95;214069;1274;141017;-65
2022/03/20 18:45:26;;;;;;;70.30;28.20;;;;;;;3.44;39.08;102355.57;214574;1274;142316;-68
2022/03/20 18:50:31;;;;;;;51.40;25.90;;;;;;;3.28;39.81;102351.65;214115;1274;141680;-72
2022/03/20 18:55:37;;;;;;;50.10;25.10;;;;;;;3.10;40.32;102351.09;214450;1273;140033;-70
2022/03/20 19:00:41;;;;;;;47.60;23.70;;;;;;;2.91;40.40;102353.52;214480;1274;139405;-70
2022/03/20 19:05:46;;;;;;;45.20;24.40;;;;;;;2.72;40.88;102358.01;214577;1274;139516;-66
2022/03/20 19:10:52;;;;;;;43.40;21.30;;;;;;;2.55;41.78;102363.69;214067;1274;140240;-74
2022/03/20 19:15:57;;;;;;;40.70;22.70;;;;;;;2.38;42.22;102362.77;214009;1274;140384;-75
2022/03/20 19:21:01;;;;;;;36.00;22.60;;;;;;;2.20;42.26;102361.67;213929;1274;140336;-74
2022/03/20 19:26:06;;;;;;;48.90;29.00;;;;;;;1.96;42.60;102364.34;213870;1274;140467;-70
2022/03/20 19:31:11;;;;;;;41.00;24.20;;;;;;;1.77;44.11;102373.01;214819;1274;139959;-67
2022/03/20 19:41:38;;;;;;;51.70;24.90;;;;;;;1.48;44.52;102375.98;213604;1274;141648;-73
2022/03/20 19:46:45;;;;;;;53.20;26.60;;;;;;;1.32;44.86;102380.29;214973;1273;139563;-71
2022/03/20 19:51:49;;;;;;;62.10;27.90;;;;;;;1.22;45.17;102382.09;214500;1274;139182;-75
2022/03/20 19:56:54;;;;;;;48.10;23.30;;;;;;;1.03;45.55;102380.30;214029;1274;140180;-74
2022/03/20 20:02:00;;;;;;;54.30;27.10;;;;;;;0.81;46.36;102384.66;215582;1273;140745;-72
2022/03/20 20:07:08;;;;;;;54.70;25.90;;;;;;;0.69;46.41;102386.73;215902;1274;140030;-69
2022/03/20 20:12:13;;;;;;;56.50;28.50;;;;;;;0.58;47.10;102385.55;216232;1274;140404;-72
2022/03/20 20:17:26;;;;;;;61.90;25.40;;;;;;;0.47;47.10;102387.20;216209;1273;140361;-72
2022/03/20 20:22:32;;;;;;;59.40;26.10;;;;;;;0.34;47.58;102384.39;215699;1274;140896;-71
2022/03/20 20:27:37;;;;;;;57.20;26.70;;;;;;;0.20;48.25;102380.64;215305;1274;140173;-68
2022/03/20 20:32:42;;;;;;;46.10;24.70;;;;;;;0.12;48.66;102384.33;215236;1274;140604;-69
2022/03/20 20:37:46;;;;;;;62.20;30.70;;;;;;;0.05;48.88;102385.47;214308;1274;139436;-69
2022/03/20 20:42:56;;;;;;;48.30;28.10;;;;;;;-0.04;49.43;102386.63;215272;1273;139918;-75
2022/03/20 20:48:01;;;;;;;41.70;23.10;;;;;;;-0.12;49.72;102392.02;214737;1274;142379;-72
2022/03/20 20:53:07;;;;;;;66.60;26.30;;;;;;;-0.16;50.07;102392.15;215210;1274;139824;-74
2022/03/20 20:58:12;;;;;;;52.10;23.00;;;;;;;-0.26;50.57;102390.36;215040;1273;141304;-77
2022/03/20 21:03:16;;;;;;;48.70;23.60;;;;;;;-0.43;50.59;102385.66;214153;1274;139803;-76
2022/03/20 21:13:42;;;;;;;53.40;25.60;;;;;;;-0.75;51.34;102379.36;213835;1274;139705;-72
2022/03/20 21:18:46;;;;;;;56.70;28.10;;;;;;;-0.83;51.77;102381.27;213739;1274;141465;-66
2022/03/20 21:23:51;;;;;;;59.90;26.00;;;;;;;-0.87;52.27;102378.38;213961;1274;141330;-69
2022/03/20 21:28:55;;;;;;;54.00;23.10;;;;;;;-0.91;52.60;102385.41;214648;1274;140455;-69
2022/03/20 21:34:02;;;;;;;52.70;26.10;;;;;;;-1.00;53.13;102376.91;214934;1274;151096;-71
2022/03/20 21:39:06;;;;;;;63.60;24.50;;;;;;;-1.16;53.44;102373.73;213833;1274;153156;-70
2022/03/20 21:44:10;;;;;;;55.80;25.30;;;;;;;-1.26;53.70;102377.84;213900;1274;142096;-71
2022/03/20 21:49:14;;;;;;;56.70;26.50;;;;;;;-1.32;54.29;102377.50;214120;1274;141405;-67
2022/03/20 21:54:19;;;;;;;57.60;25.20;;;;;;;-1.42;54.38;102380.55;213789;1274;1220533;-74
2022/03/20 21:59:23;;;;;;;55.00;23.60;;;;;;;-1.50;54.63;102376.30;214900;1274;140944;-70
2022/03/20 22:04:28;;;;;;;57.60;26.50;;;;;;;-1.58;54.73;102381.19;214370;1274;141676;-70
2022/03/20 22:09:32;;;;;;;58.90;27.50;;;;;;;-1.58;55.08;102377.73;216065;1273;141347;-71
2022/03/20 22:14:35;;;;;;;54.70;27.60;;;;;;;-1.56;55.46;102382.98;215614;1274;140242;-71
2022/03/20 22:19:40;;;;;;;44.20;24.40;;;;;;;-1.63;55.39;102382.69;215941;1274;140526;-72
2022/03/20 22:24:45;;;;;;;44.30;20.80;;;;;;;-1.75;55.54;102382.70;216089;1274;140672;-72
2022/03/20 22:29:49;;;;;;;56.30;24.90;;;;;;;-1.84;55.86;102383.04;216056;1274;140455;-70
2022/03/20 22:40:19;;;;;;;45.70;24.90;;;;;;;-1.94;56.08;102374.58;214710;1274;140083;-69
2022/03/20 22:45:29;;;;;;;52.20;23.90;;;;;;;-1.96;56.28;102379.05;215010;1274;140596;-73
2022/03/20 22:50:34;;;;;;;44.50;22.50;;;;;;;-2.00;56.70;102380.17;213163;1274;141893;-69
2022/03/20 22:55:37;;;;;;;45.40;23.40;;;;;;;-2.04;57.06;102377.44;214575;1274;140250;-64
2022/03/20 23:00:41;;;;;;;42.30;23.60;;;;;;;-2.09;57.28;102374.77;214852;1273;222501;-65
2022/03/20 23:05:45;;;;;;;38.50;22.20;;;;;;;-2.24;57.07;102378.26;215337;1274;141079;-66
2022/03/20 23:10:49;;;;;;;45.30;21.60;;;;;;;-2.38;57.38;102375.40;215093;1274;139931;-71
2022/03/20 23:15:53;;;;;;;41.80;21.90;;;;;;;-2.46;57.38;102377.04;213907;1274;141678;-69
2022/03/20 23:20:58;;;;;;;52.20;31.50;;;;;;;-2.49;57.78;102377.23;213824;1274;230938;-69
2022/03/20 23:26:03;;;;;;;59.00;27.00;;;;;;;-2.47;58.07;102374.19;213781;1274;145609;-69
2022/03/20 23:31:16;;;;;;;55.50;26.50;;;;;;;-2.52;58.34;102371.86;213974;1274;140450;-70
2022/03/20 23:36:22;;;;;;;56.80;25.40;;;;;;;-2.59;58.45;102370.30;215231;1274;139873;-65
2022/03/20 23:46:50;;;;;;;52.90;26.70;;;;;;;-2.84;58.84;102370.69;215521;1274;141371;-70
2022/03/20 23:51:55;;;;;;;69.20;32.30;;;;;;;-2.87;59.08;102366.83;214855;1274;142355;-70
2022/03/20 23:57:00;;;;;;;58.40;28.30;;;;;;;-2.86;59.11;102368.55;214794;1274;139927;-69
